SAS95 ESSA-ESSV
Flight info
| Callsign | SAS95 |
|---|---|
| Flight time | 0h 32m |
| Altitude | 13000 |
| Route | BABAP T316 GOTAL |
| Aircraft | AT76/M-SDFGIRY/S |
Departure
| Time | 2026-05-04 18:37 |
|---|---|
| Airport | Stockholm-Arlanda Airport (ESSA) |
Arrival
| Time | 2026-05-04 19:09 |
|---|---|
| Airport | Visby Airport (ESSV) |
| Time | Latitude | Longitude | Altitude | Speed | Heading |
|---|---|---|---|---|---|
| 2026-05-04 18:05 | 59.65346 | 17.93816 | 108 ft | 0 kts | 256° |
| 2026-05-04 18:22 | 59.65350 | 17.93849 | 106 ft | 4 kts | 256° |
| 2026-05-04 18:23 | 59.65355 | 17.93888 | 106 ft | 4 kts | 241° |
| 2026-05-04 18:23 | 59.65368 | 17.93921 | 108 ft | 4 kts | 227° |
| 2026-05-04 18:23 | 59.65382 | 17.93953 | 109 ft | 4 kts | 255° |
| 2026-05-04 18:23 | 59.65381 | 17.93995 | 110 ft | 4 kts | 286° |
| 2026-05-04 18:24 | 59.65378 | 17.94016 | 111 ft | 0 kts | 286° |
| 2026-05-04 18:28 | 59.65379 | 17.94005 | 110 ft | 2 kts | 287° |
| 2026-05-04 18:29 | 59.65388 | 17.93972 | 107 ft | 4 kts | 307° |
| 2026-05-04 18:29 | 59.65415 | 17.93943 | 110 ft | 6 kts | 345° |
| 2026-05-04 18:29 | 59.65465 | 17.93920 | 108 ft | 9 kts | 347° |
| 2026-05-04 18:29 | 59.65529 | 17.93889 | 109 ft | 10 kts | 345° |
| 2026-05-04 18:30 | 59.65586 | 17.93730 | 108 ft | 5 kts | 257° |
| 2026-05-04 18:30 | 59.65579 | 17.93672 | 109 ft | 4 kts | 256° |
| 2026-05-04 18:30 | 59.65574 | 17.93627 | 108 ft | 3 kts | 256° |
| 2026-05-04 18:31 | 59.65559 | 17.93520 | 107 ft | 15 kts | 255° |
| 2026-05-04 18:31 | 59.65529 | 17.93277 | 107 ft | 15 kts | 256° |
| 2026-05-04 18:31 | 59.65508 | 17.93122 | 108 ft | 9 kts | 256° |
| 2026-05-04 18:31 | 59.65497 | 17.93030 | 108 ft | 6 kts | 254° |
| 2026-05-04 18:32 | 59.65483 | 17.92940 | 107 ft | 11 kts | 250° |
| 2026-05-04 18:32 | 59.65449 | 17.92771 | 108 ft | 13 kts | 246° |
| 2026-05-04 18:32 | 59.65448 | 17.92612 | 106 ft | 12 kts | 325° |
| 2026-05-04 18:32 | 59.65545 | 17.92522 | 101 ft | 19 kts | 342° |
| 2026-05-04 18:33 | 59.65671 | 17.92458 | 100 ft | 17 kts | 346° |
| 2026-05-04 18:33 | 59.65773 | 17.92425 | 102 ft | 16 kts | 9° |
| 2026-05-04 18:33 | 59.65877 | 17.92456 | 104 ft | 13 kts | 356° |
| 2026-05-04 18:33 | 59.65913 | 17.92351 | 106 ft | 10 kts | 281° |
| 2026-05-04 18:34 | 59.65917 | 17.92306 | 107 ft | 0 kts | 280° |
| 2026-05-04 18:34 | 59.65918 | 17.92286 | 108 ft | 7 kts | 280° |
| 2026-05-04 18:34 | 59.65925 | 17.92131 | 111 ft | 8 kts | 237° |
| 2026-05-04 18:34 | 59.65889 | 17.92104 | 111 ft | 8 kts | 189° |
| 2026-05-04 18:35 | 59.65886 | 17.92103 | 111 ft | 0 kts | 189° |
| 2026-05-04 18:36 | 59.65810 | 17.92076 | 108 ft | 38 kts | 191° |
| 2026-05-04 18:36 | 59.65351 | 17.91905 | 102 ft | 94 kts | 191° |
| 2026-05-04 18:36 | 59.64579 | 17.91637 | 202 ft | 122 kts | 191° |
| 2026-05-04 18:36 | 59.63732 | 17.91399 | 628 ft | 129 kts | 191° |
| 2026-05-04 18:37 | 59.62786 | 17.91248 | 1015 ft | 142 kts | 186° |
| 2026-05-04 18:37 | 59.61813 | 17.91836 | 1470 ft | 159 kts | 137° |
| 2026-05-04 18:37 | 59.61212 | 17.93743 | 1808 ft | 168 kts | 124° |
| 2026-05-04 18:37 | 59.60568 | 17.95652 | 2283 ft | 169 kts | 128° |
| 2026-05-04 18:38 | 59.59894 | 17.97601 | 2699 ft | 177 kts | 127° |
| 2026-05-04 18:38 | 59.59178 | 17.99650 | 3089 ft | 188 kts | 129° |
| 2026-05-04 18:38 | 59.58424 | 18.01803 | 3409 ft | 192 kts | 128° |
| 2026-05-04 18:38 | 59.57680 | 18.03993 | 3785 ft | 192 kts | 128° |
| 2026-05-04 18:39 | 59.56939 | 18.06199 | 4166 ft | 193 kts | 127° |
| 2026-05-04 18:39 | 59.56189 | 18.08419 | 4524 ft | 192 kts | 131° |
| 2026-05-04 18:39 | 59.55143 | 18.09818 | 4812 ft | 178 kts | 180° |
| 2026-05-04 18:39 | 59.53966 | 18.09616 | 5162 ft | 170 kts | 198° |
| 2026-05-04 18:40 | 59.52785 | 18.09299 | 5534 ft | 172 kts | 194° |
| 2026-05-04 18:40 | 59.51581 | 18.09099 | 5898 ft | 175 kts | 191° |
| 2026-05-04 18:40 | 59.50355 | 18.09064 | 6283 ft | 177 kts | 186° |
| 2026-05-04 18:40 | 59.49128 | 18.09210 | 6622 ft | 180 kts | 182° |
| 2026-05-04 18:41 | 59.47877 | 18.09518 | 6957 ft | 182 kts | 179° |
| 2026-05-04 18:41 | 59.46620 | 18.09915 | 7290 ft | 183 kts | 179° |
| 2026-05-04 18:41 | 59.45363 | 18.10319 | 7642 ft | 183 kts | 179° |
| 2026-05-04 18:41 | 59.44102 | 18.10729 | 7987 ft | 183 kts | 179° |
| 2026-05-04 18:42 | 59.42843 | 18.11152 | 8336 ft | 184 kts | 179° |
| 2026-05-04 18:42 | 59.41582 | 18.11576 | 8678 ft | 184 kts | 179° |
| 2026-05-04 18:42 | 59.40315 | 18.11979 | 9024 ft | 184 kts | 180° |
| 2026-05-04 18:42 | 59.39047 | 18.12375 | 9355 ft | 185 kts | 180° |
| 2026-05-04 18:43 | 59.37774 | 18.12765 | 9676 ft | 185 kts | 180° |
| 2026-05-04 18:43 | 59.36497 | 18.13158 | 9969 ft | 186 kts | 180° |
| 2026-05-04 18:43 | 59.35219 | 18.13549 | 10267 ft | 186 kts | 181° |
| 2026-05-04 18:43 | 59.33936 | 18.13938 | 10568 ft | 187 kts | 181° |
| 2026-05-04 18:44 | 59.32652 | 18.14330 | 10858 ft | 187 kts | 181° |
| 2026-05-04 18:44 | 59.31797 | 18.14590 | 11048 ft | 187 kts | 182° |
| 2026-05-04 18:44 | 59.30083 | 18.15113 | 11432 ft | 188 kts | 182° |
| 2026-05-04 18:44 | 59.28784 | 18.15508 | 11710 ft | 188 kts | 182° |
| 2026-05-04 18:45 | 59.27489 | 18.15902 | 11993 ft | 189 kts | 183° |
| 2026-05-04 18:45 | 59.26187 | 18.16298 | 12276 ft | 190 kts | 183° |
| 2026-05-04 18:45 | 59.24879 | 18.16693 | 12534 ft | 192 kts | 183° |
| 2026-05-04 18:45 | 59.23530 | 18.17091 | 12637 ft | 201 kts | 183° |
| 2026-05-04 18:46 | 59.22105 | 18.17480 | 12684 ft | 212 kts | 183° |
| 2026-05-04 18:46 | 59.20607 | 18.17880 | 12702 ft | 223 kts | 182° |
| 2026-05-04 18:46 | 59.19035 | 18.18335 | 12712 ft | 233 kts | 181° |
| 2026-05-04 18:46 | 59.17402 | 18.18830 | 12698 ft | 241 kts | 181° |
| 2026-05-04 18:47 | 59.15718 | 18.19339 | 12683 ft | 248 kts | 180° |
| 2026-05-04 18:47 | 59.14002 | 18.19858 | 12703 ft | 252 kts | 180° |
| 2026-05-04 18:47 | 59.12257 | 18.20385 | 12708 ft | 255 kts | 180° |
| 2026-05-04 18:47 | 59.10493 | 18.20913 | 12716 ft | 258 kts | 180° |
| 2026-05-04 18:48 | 59.08702 | 18.21451 | 12660 ft | 262 kts | 180° |
| 2026-05-04 18:48 | 59.06913 | 18.21986 | 12576 ft | 265 kts | 180° |
| 2026-05-04 18:48 | 59.05070 | 18.22539 | 12413 ft | 271 kts | 180° |
| 2026-05-04 18:48 | 59.03250 | 18.23099 | 12776 ft | 257 kts | 180° |
| 2026-05-04 18:49 | 59.01470 | 18.23670 | 12780 ft | 260 kts | 180° |
| 2026-05-04 18:49 | 58.99680 | 18.24238 | 12790 ft | 261 kts | 180° |
| 2026-05-04 18:49 | 58.97876 | 18.24795 | 12793 ft | 263 kts | 180° |
| 2026-05-04 18:49 | 58.96067 | 18.25337 | 12805 ft | 264 kts | 180° |
| 2026-05-04 18:50 | 58.94266 | 18.25876 | 12816 ft | 265 kts | 180° |
| 2026-05-04 18:50 | 58.92436 | 18.26421 | 12823 ft | 265 kts | 180° |
| 2026-05-04 18:50 | 58.90613 | 18.26962 | 12828 ft | 266 kts | 180° |
| 2026-05-04 18:50 | 58.88775 | 18.27508 | 12829 ft | 266 kts | 180° |
| 2026-05-04 18:51 | 58.86938 | 18.28050 | 12834 ft | 267 kts | 180° |
| 2026-05-04 18:51 | 58.85100 | 18.28596 | 12834 ft | 267 kts | 180° |
| 2026-05-04 18:51 | 58.83283 | 18.29129 | 12839 ft | 267 kts | 180° |
| 2026-05-04 18:51 | 58.81441 | 18.29675 | 12840 ft | 267 kts | 180° |
| 2026-05-04 18:52 | 58.79598 | 18.30217 | 12845 ft | 267 kts | 180° |
| 2026-05-04 18:52 | 58.77757 | 18.30761 | 12835 ft | 268 kts | 180° |
| 2026-05-04 18:52 | 58.75905 | 18.31306 | 12831 ft | 268 kts | 181° |
| 2026-05-04 18:52 | 58.74081 | 18.31839 | 12831 ft | 268 kts | 180° |
| 2026-05-04 18:53 | 58.72233 | 18.32384 | 12826 ft | 268 kts | 180° |
| 2026-05-04 18:53 | 58.70384 | 18.32926 | 12829 ft | 268 kts | 181° |
| 2026-05-04 18:53 | 58.68535 | 18.33467 | 12825 ft | 268 kts | 180° |
| 2026-05-04 18:53 | 58.66692 | 18.34008 | 12821 ft | 268 kts | 181° |
| 2026-05-04 18:54 | 58.64845 | 18.34545 | 12825 ft | 268 kts | 181° |
| 2026-05-04 18:54 | 58.63006 | 18.35084 | 12822 ft | 268 kts | 180° |
| 2026-05-04 18:54 | 58.61183 | 18.35615 | 12820 ft | 268 kts | 181° |
| 2026-05-04 18:54 | 58.59334 | 18.36153 | 12812 ft | 268 kts | 181° |
| 2026-05-04 18:55 | 58.57487 | 18.36692 | 12815 ft | 269 kts | 181° |
| 2026-05-04 18:55 | 58.53800 | 18.37762 | 12814 ft | 269 kts | 181° |
| 2026-05-04 18:55 | 58.51949 | 18.38300 | 12810 ft | 269 kts | 180° |
| 2026-05-04 18:56 | 58.50088 | 18.38840 | 12804 ft | 269 kts | 181° |
| 2026-05-04 18:56 | 58.48232 | 18.39378 | 12805 ft | 269 kts | 180° |
| 2026-05-04 18:56 | 58.46377 | 18.39916 | 12802 ft | 269 kts | 180° |
| 2026-05-04 18:56 | 58.44529 | 18.40449 | 12802 ft | 269 kts | 181° |
| 2026-05-04 18:57 | 58.42674 | 18.40982 | 12799 ft | 269 kts | 180° |
| 2026-05-04 18:57 | 58.40827 | 18.41517 | 12799 ft | 268 kts | 180° |
| 2026-05-04 18:57 | 58.39000 | 18.42044 | 12794 ft | 267 kts | 180° |
| 2026-05-04 18:57 | 58.37156 | 18.42574 | 12799 ft | 267 kts | 180° |
| 2026-05-04 18:58 | 58.35319 | 18.43100 | 12796 ft | 267 kts | 180° |
| 2026-05-04 18:58 | 58.34100 | 18.43452 | 12795 ft | 267 kts | 180° |
| 2026-05-04 18:58 | 58.32260 | 18.43979 | 12740 ft | 268 kts | 181° |
| 2026-05-04 18:58 | 58.30365 | 18.44503 | 12357 ft | 281 kts | 180° |
| 2026-05-04 18:59 | 58.28406 | 18.45012 | 11968 ft | 284 kts | 180° |
| 2026-05-04 18:59 | 58.26457 | 18.45532 | 11622 ft | 282 kts | 180° |
| 2026-05-04 18:59 | 58.24521 | 18.46063 | 11271 ft | 279 kts | 180° |
| 2026-05-04 18:59 | 58.22621 | 18.46341 | 10901 ft | 274 kts | 186° |
| 2026-05-04 19:00 | 58.20719 | 18.46341 | 10546 ft | 273 kts | 189° |
| 2026-05-04 19:00 | 58.18817 | 18.46262 | 10185 ft | 272 kts | 189° |
| 2026-05-04 19:00 | 58.16921 | 18.46189 | 9832 ft | 272 kts | 188° |
| 2026-05-04 19:00 | 58.15029 | 18.46174 | 9457 ft | 272 kts | 187° |
| 2026-05-04 19:01 | 58.13134 | 18.46180 | 9073 ft | 271 kts | 187° |
| 2026-05-04 19:01 | 58.11269 | 18.46187 | 8700 ft | 271 kts | 186° |
| 2026-05-04 19:01 | 58.09385 | 18.46196 | 8333 ft | 270 kts | 186° |
| 2026-05-04 19:01 | 58.07504 | 18.46206 | 7974 ft | 269 kts | 186° |
| 2026-05-04 19:02 | 58.05635 | 18.46213 | 7610 ft | 268 kts | 186° |
| 2026-05-04 19:02 | 58.03777 | 18.46218 | 7257 ft | 265 kts | 186° |
| 2026-05-04 19:02 | 58.01956 | 18.46222 | 6916 ft | 263 kts | 186° |
| 2026-05-04 19:02 | 58.00129 | 18.46234 | 6578 ft | 261 kts | 185° |
| 2026-05-04 19:03 | 57.98315 | 18.46250 | 6244 ft | 259 kts | 185° |
| 2026-05-04 19:03 | 57.96514 | 18.46257 | 5896 ft | 258 kts | 185° |
| 2026-05-04 19:03 | 57.94719 | 18.46265 | 5545 ft | 257 kts | 185° |
| 2026-05-04 19:03 | 57.92933 | 18.46277 | 5206 ft | 256 kts | 185° |
| 2026-05-04 19:04 | 57.91190 | 18.46289 | 5078 ft | 251 kts | 185° |
| 2026-05-04 19:04 | 57.89463 | 18.46299 | 5029 ft | 245 kts | 185° |
| 2026-05-04 19:04 | 57.87779 | 18.46305 | 4998 ft | 239 kts | 185° |
| 2026-05-04 19:04 | 57.86129 | 18.46311 | 4990 ft | 234 kts | 185° |
| 2026-05-04 19:05 | 57.84505 | 18.46313 | 4911 ft | 233 kts | 185° |
| 2026-05-04 19:05 | 57.82881 | 18.46298 | 4630 ft | 231 kts | 188° |
| 2026-05-04 19:05 | 57.81340 | 18.45635 | 4287 ft | 225 kts | 204° |
| 2026-05-04 19:05 | 57.79902 | 18.44598 | 3932 ft | 222 kts | 207° |
| 2026-05-04 19:06 | 57.78530 | 18.43529 | 3529 ft | 207 kts | 208° |
| 2026-05-04 19:06 | 57.77215 | 18.42516 | 3029 ft | 203 kts | 208° |
| 2026-05-04 19:06 | 57.75913 | 18.41524 | 2440 ft | 201 kts | 208° |
| 2026-05-04 19:06 | 57.74625 | 18.40563 | 1858 ft | 199 kts | 208° |
| 2026-05-04 19:07 | 57.73341 | 18.39628 | 1294 ft | 195 kts | 206° |
| 2026-05-04 19:07 | 57.72090 | 18.38714 | 816 ft | 188 kts | 204° |
| 2026-05-04 19:07 | 57.70947 | 18.37902 | 741 ft | 162 kts | 202° |
| 2026-05-04 19:07 | 57.69978 | 18.37289 | 749 ft | 140 kts | 204° |
| 2026-05-04 19:08 | 57.69116 | 18.36651 | 631 ft | 127 kts | 206° |
| 2026-05-04 19:08 | 57.68334 | 18.36116 | 513 ft | 111 kts | 202° |
| 2026-05-04 19:08 | 57.67643 | 18.35607 | 304 ft | 101 kts | 204° |
| 2026-05-04 19:08 | 57.66997 | 18.35139 | 166 ft | 98 kts | 204° |
| 2026-05-04 19:09 | 57.66469 | 18.34755 | 153 ft | 55 kts | 201° |
| 2026-05-04 19:09 | 57.66212 | 18.34571 | 153 ft | 37 kts | 202° |
| 2026-05-04 19:09 | 57.66125 | 18.34513 | 154 ft | 7 kts | 199° |
| 2026-05-04 19:09 | 57.66070 | 18.34474 | 153 ft | 12 kts | 201° |
| 2026-05-04 19:10 | 57.66009 | 18.34429 | 153 ft | 4 kts | 202° |
| 2026-05-04 19:10 | 57.65985 | 18.34406 | 153 ft | 5 kts | 212° |
| 2026-05-04 19:10 | 57.65966 | 18.34326 | 154 ft | 9 kts | 280° |
| 2026-05-04 19:10 | 57.65989 | 18.34201 | 155 ft | 11 kts | 290° |
| 2026-05-04 19:11 | 57.66006 | 18.34121 | 155 ft | 6 kts | 292° |
| 2026-05-04 19:11 | 57.66021 | 18.34048 | 155 ft | 4 kts | 291° |
| 2026-05-04 19:11 | 57.66041 | 18.34003 | 155 ft | 5 kts | 341° |
| 2026-05-04 19:11 | 57.66068 | 18.34006 | 155 ft | 3 kts | 351° |
| 2026-05-04 19:12 | 57.66097 | 18.33976 | 155 ft | 1 kts | 333° |
| 2026-05-04 19:12 | 57.66088 | 18.34034 | 155 ft | 4 kts | 173° |
| 2026-05-04 19:12 | 57.66080 | 18.34022 | 155 ft | 1 kts | 237° |
| 2026-05-04 19:13 | 57.66079 | 18.34018 | 155 ft | 0 kts | 247° |
| 2026-05-04 19:13 | 57.66086 | 18.34000 | 155 ft | 3 kts | 318° |
| 2026-05-04 19:13 | 57.66101 | 18.33985 | 155 ft | 0 kts | 334° |
| 2026-05-04 19:22 | 57.66101 | 18.33984 | 155 ft | 0 kts | 337° |
| 2026-05-04 19:27 | 57.66059 | 18.33951 | 155 ft | 0 kts | 336° |
| 2026-05-04 19:28 | 57.66101 | 18.33984 | 156 ft | 0 kts | 337° |
| 2026-05-04 19:28 | 57.65983 | 18.33896 | 155 ft | 0 kts | 336° |
| 2026-05-04 19:28 | 57.66101 | 18.33984 | 155 ft | 0 kts | 337° |